sensor_id;sensor_type;location;lat;lon;timestamp;P1;durP1;ratioP1;P2;durP2;ratioP2
72688;SDS011;61053;52.166;4.506;2023-11-21T00:00:07;15.07;;;7.20;;
72688;SDS011;61053;52.166;4.506;2023-11-21T00:02:37;11.43;;;6.53;;
72688;SDS011;61053;52.166;4.506;2023-11-21T00:05:14;16.23;;;6.93;;
72688;SDS011;61053;52.166;4.506;2023-11-21T00:07:41;10.77;;;6.68;;
72688;SDS011;61053;52.166;4.506;2023-11-21T00:10:07;14.10;;;7.47;;
72688;SDS011;61053;52.166;4.506;2023-11-21T00:12:39;20.40;;;7.93;;
72688;SDS011;61053;52.166;4.506;2023-11-21T00:15:07;12.65;;;6.32;;
72688;SDS011;61053;52.166;4.506;2023-11-21T00:17:37;14.52;;;6.88;;
72688;SDS011;61053;52.166;4.506;2023-11-21T00:20:04;13.20;;;7.13;;
72688;SDS011;61053;52.166;4.506;2023-11-21T00:22:32;16.77;;;6.75;;
72688;SDS011;61053;52.166;4.506;2023-11-21T00:25:02;13.77;;;6.18;;
72688;SDS011;61053;52.166;4.506;2023-11-21T00:27:34;14.63;;;6.93;;
72688;SDS011;61053;52.166;4.506;2023-11-21T00:30:00;10.40;;;6.15;;
72688;SDS011;61053;52.166;4.506;2023-11-21T00:32:26;9.82;;;6.50;;
72688;SDS011;61053;52.166;4.506;2023-11-21T00:35:03;12.48;;;7.55;;
72688;SDS011;61053;52.166;4.506;2023-11-21T00:37:47;18.75;;;7.03;;
72688;SDS011;61053;52.166;4.506;2023-11-21T00:40:25;14.88;;;7.47;;
72688;SDS011;61053;52.166;4.506;2023-11-21T00:42:50;14.45;;;6.55;;
72688;SDS011;61053;52.166;4.506;2023-11-21T00:45:16;11.45;;;6.75;;
72688;SDS011;61053;52.166;4.506;2023-11-21T00:47:48;9.80;;;6.45;;
72688;SDS011;61053;52.166;4.506;2023-11-21T00:50:13;16.70;;;6.53;;
72688;SDS011;61053;52.166;4.506;2023-11-21T00:52:40;14.35;;;6.63;;
72688;SDS011;61053;52.166;4.506;2023-11-21T00:55:06;12.05;;;6.40;;
72688;SDS011;61053;52.166;4.506;2023-11-21T00:57:32;15.88;;;6.38;;
72688;SDS011;61053;52.166;4.506;2023-11-21T00:59:58;13.88;;;6.57;;
72688;SDS011;61053;52.166;4.506;2023-11-21T01:02:25;18.83;;;6.28;;
72688;SDS011;61053;52.166;4.506;2023-11-21T01:04:51;14.73;;;6.30;;
72688;SDS011;61053;52.166;4.506;2023-11-21T01:07:16;12.98;;;5.97;;
72688;SDS011;61053;52.166;4.506;2023-11-21T01:09:45;15.68;;;6.13;;
72688;SDS011;61053;52.166;4.506;2023-11-21T01:12:14;13.45;;;6.22;;
72688;SDS011;61053;52.166;4.506;2023-11-21T01:14:43;14.80;;;6.40;;
72688;SDS011;61053;52.166;4.506;2023-11-21T01:17:18;13.75;;;7.18;;
72688;SDS011;61053;52.166;4.506;2023-11-21T01:19:44;12.80;;;6.43;;
72688;SDS011;61053;52.166;4.506;2023-11-21T01:22:18;13.02;;;7.32;;
72688;SDS011;61053;52.166;4.506;2023-11-21T01:24:50;15.45;;;6.18;;
72688;SDS011;61053;52.166;4.506;2023-11-21T01:27:16;10.23;;;5.70;;
72688;SDS011;61053;52.166;4.506;2023-11-21T01:29:43;9.70;;;5.03;;
72688;SDS011;61053;52.166;4.506;2023-11-21T01:32:09;12.75;;;6.00;;
72688;SDS011;61053;52.166;4.506;2023-11-21T01:34:40;13.75;;;5.68;;
72688;SDS011;61053;52.166;4.506;2023-11-21T01:37:09;9.45;;;5.05;;
72688;SDS011;61053;52.166;4.506;2023-11-21T01:39:37;10.52;;;5.75;;
72688;SDS011;61053;52.166;4.506;2023-11-21T01:42:04;11.05;;;5.80;;
72688;SDS011;61053;52.166;4.506;2023-11-21T01:44:30;9.55;;;5.03;;
72688;SDS011;61053;52.166;4.506;2023-11-21T01:46:56;12.90;;;5.05;;
72688;SDS011;61053;52.166;4.506;2023-11-21T01:49:29;14.60;;;4.88;;
72688;SDS011;61053;52.166;4.506;2023-11-21T01:51:58;13.75;;;4.90;;
72688;SDS011;61053;52.166;4.506;2023-11-21T01:54:24;10.70;;;5.35;;
72688;SDS011;61053;52.166;4.506;2023-11-21T01:56:59;11.93;;;5.20;;
72688;SDS011;61053;52.166;4.506;2023-11-21T01:59:27;9.07;;;4.75;;
72688;SDS011;61053;52.166;4.506;2023-11-21T02:01:57;6.63;;;4.20;;
72688;SDS011;61053;52.166;4.506;2023-11-21T02:04:23;12.30;;;4.80;;
72688;SDS011;61053;52.166;4.506;2023-11-21T02:06:49;14.70;;;5.28;;
72688;SDS011;61053;52.166;4.506;2023-11-21T02:09:16;6.30;;;3.92;;
72688;SDS011;61053;52.166;4.506;2023-11-21T02:11:43;9.43;;;4.30;;
72688;SDS011;61053;52.166;4.506;2023-11-21T02:14:14;7.78;;;4.40;;
72688;SDS011;61053;52.166;4.506;2023-11-21T02:16:40;10.13;;;3.83;;
72688;SDS011;61053;52.166;4.506;2023-11-21T02:19:06;8.02;;;4.25;;
72688;SDS011;61053;52.166;4.506;2023-11-21T02:21:38;8.57;;;4.03;;
72688;SDS011;61053;52.166;4.506;2023-11-21T02:24:40;9.27;;;4.22;;
72688;SDS011;61053;52.166;4.506;2023-11-21T02:27:09;10.73;;;3.63;;
72688;SDS011;61053;52.166;4.506;2023-11-21T02:29:35;9.85;;;3.50;;
72688;SDS011;61053;52.166;4.506;2023-11-21T02:32:00;5.80;;;3.15;;
72688;SDS011;61053;52.166;4.506;2023-11-21T02:34:26;5.82;;;3.42;;
72688;SDS011;61053;52.166;4.506;2023-11-21T02:36:52;5.78;;;2.78;;
72688;SDS011;61053;52.166;4.506;2023-11-21T02:39:19;8.00;;;2.90;;
72688;SDS011;61053;52.166;4.506;2023-11-21T02:41:49;8.85;;;3.20;;
72688;SDS011;61053;52.166;4.506;2023-11-21T02:44:15;9.00;;;3.22;;
72688;SDS011;61053;52.166;4.506;2023-11-21T02:46:41;3.88;;;2.58;;
72688;SDS011;61053;52.166;4.506;2023-11-21T02:49:12;6.20;;;2.63;;
72688;SDS011;61053;52.166;4.506;2023-11-21T02:51:38;5.63;;;2.47;;
72688;SDS011;61053;52.166;4.506;2023-11-21T02:54:19;3.20;;;2.47;;
72688;SDS011;61053;52.166;4.506;2023-11-21T02:59:46;5.93;;;2.45;;
72688;SDS011;61053;52.166;4.506;2023-11-21T03:02:11;3.13;;;2.50;;
72688;SDS011;61053;52.166;4.506;2023-11-21T03:04:37;5.32;;;2.35;;
72688;SDS011;61053;52.166;4.506;2023-11-21T03:07:11;8.90;;;2.90;;
72688;SDS011;61053;52.166;4.506;2023-11-21T03:09:37;6.47;;;2.28;;
72688;SDS011;61053;52.166;4.506;2023-11-21T03:12:04;5.80;;;2.63;;
72688;SDS011;61053;52.166;4.506;2023-11-21T03:14:30;6.45;;;2.58;;
72688;SDS011;61053;52.166;4.506;2023-11-21T03:16:55;4.30;;;2.28;;
72688;SDS011;61053;52.166;4.506;2023-11-21T03:19:21;6.03;;;2.55;;
72688;SDS011;61053;52.166;4.506;2023-11-21T03:21:51;4.75;;;2.22;;
72688;SDS011;61053;52.166;4.506;2023-11-21T03:24:18;7.18;;;2.75;;
72688;SDS011;61053;52.166;4.506;2023-11-21T03:26:47;4.57;;;2.50;;
72688;SDS011;61053;52.166;4.506;2023-11-21T03:29:16;8.48;;;2.95;;
72688;SDS011;61053;52.166;4.506;2023-11-21T03:31:42;4.88;;;2.33;;
72688;SDS011;61053;52.166;4.506;2023-11-21T03:34:10;6.32;;;2.35;;
72688;SDS011;61053;52.166;4.506;2023-11-21T03:36:56;4.50;;;2.33;;
72688;SDS011;61053;52.166;4.506;2023-11-21T03:39:22;6.15;;;2.72;;
72688;SDS011;61053;52.166;4.506;2023-11-21T03:41:47;7.55;;;2.40;;
72688;SDS011;61053;52.166;4.506;2023-11-21T03:44:17;5.13;;;2.95;;
72688;SDS011;61053;52.166;4.506;2023-11-21T03:46:43;7.70;;;2.72;;
72688;SDS011;61053;52.166;4.506;2023-11-21T03:49:09;8.50;;;2.72;;
72688;SDS011;61053;52.166;4.506;2023-11-21T03:51:36;5.68;;;2.95;;
72688;SDS011;61053;52.166;4.506;2023-11-21T03:54:02;5.07;;;2.63;;
72688;SDS011;61053;52.166;4.506;2023-11-21T03:56:28;5.55;;;2.25;;
72688;SDS011;61053;52.166;4.506;2023-11-21T03:58:53;5.55;;;2.05;;
72688;SDS011;61053;52.166;4.506;2023-11-21T04:01:22;2.40;;;1.52;;
72688;SDS011;61053;52.166;4.506;2023-11-21T04:03:51;2.35;;;1.58;;
72688;SDS011;61053;52.166;4.506;2023-11-21T04:06:17;2.65;;;1.60;;
72688;SDS011;61053;52.166;4.506;2023-11-21T04:08:48;2.88;;;1.45;;
72688;SDS011;61053;52.166;4.506;2023-11-21T04:11:19;7.47;;;1.83;;
72688;SDS011;61053;52.166;4.506;2023-11-21T04:13:45;4.38;;;1.80;;
72688;SDS011;61053;52.166;4.506;2023-11-21T04:16:12;4.45;;;1.75;;
72688;SDS011;61053;52.166;4.506;2023-11-21T04:18:58;3.45;;;1.83;;
72688;SDS011;61053;52.166;4.506;2023-11-21T04:21:24;3.22;;;2.08;;
72688;SDS011;61053;52.166;4.506;2023-11-21T04:23:49;4.88;;;2.35;;
72688;SDS011;61053;52.166;4.506;2023-11-21T04:26:18;6.93;;;2.55;;
72688;SDS011;61053;52.166;4.506;2023-11-21T04:28:43;4.75;;;2.17;;
72688;SDS011;61053;52.166;4.506;2023-11-21T04:31:09;5.55;;;1.90;;
72688;SDS011;61053;52.166;4.506;2023-11-21T04:33:44;8.18;;;2.65;;
72688;SDS011;61053;52.166;4.506;2023-11-21T04:36:10;4.55;;;2.60;;
72688;SDS011;61053;52.166;4.506;2023-11-21T04:38:36;5.22;;;2.67;;
72688;SDS011;61053;52.166;4.506;2023-11-21T04:41:04;4.85;;;2.35;;
72688;SDS011;61053;52.166;4.506;2023-11-21T04:43:30;7.95;;;3.58;;
72688;SDS011;61053;52.166;4.506;2023-11-21T04:46:02;6.05;;;2.38;;
72688;SDS011;61053;52.166;4.506;2023-11-21T04:48:35;7.95;;;2.63;;
72688;SDS011;61053;52.166;4.506;2023-11-21T04:51:09;5.80;;;2.70;;
72688;SDS011;61053;52.166;4.506;2023-11-21T04:53:38;5.13;;;2.53;;
72688;SDS011;61053;52.166;4.506;2023-11-21T04:56:04;6.68;;;3.00;;
72688;SDS011;61053;52.166;4.506;2023-11-21T04:58:33;8.38;;;2.67;;
72688;SDS011;61053;52.166;4.506;2023-11-21T05:01:02;6.50;;;2.97;;
72688;SDS011;61053;52.166;4.506;2023-11-21T05:03:28;5.25;;;2.90;;
72688;SDS011;61053;52.166;4.506;2023-11-21T05:06:01;5.57;;;2.83;;
72688;SDS011;61053;52.166;4.506;2023-11-21T05:08:30;5.70;;;2.75;;
72688;SDS011;61053;52.166;4.506;2023-11-21T05:11:05;5.15;;;2.65;;
72688;SDS011;61053;52.166;4.506;2023-11-21T05:13:35;5.15;;;2.50;;
72688;SDS011;61053;52.166;4.506;2023-11-21T05:16:01;5.88;;;3.40;;
72688;SDS011;61053;52.166;4.506;2023-11-21T05:18:30;6.38;;;2.88;;
72688;SDS011;61053;52.166;4.506;2023-11-21T05:21:01;4.93;;;2.85;;
72688;SDS011;61053;52.166;4.506;2023-11-21T05:23:30;8.35;;;3.85;;
72688;SDS011;61053;52.166;4.506;2023-11-21T05:26:07;4.40;;;2.83;;
72688;SDS011;61053;52.166;4.506;2023-11-21T05:28:38;5.55;;;2.88;;
72688;SDS011;61053;52.166;4.506;2023-11-21T05:31:18;5.43;;;3.03;;
72688;SDS011;61053;52.166;4.506;2023-11-21T05:33:47;4.93;;;3.15;;
72688;SDS011;61053;52.166;4.506;2023-11-21T05:36:25;4.65;;;2.60;;
72688;SDS011;61053;52.166;4.506;2023-11-21T05:38:56;5.60;;;2.83;;
72688;SDS011;61053;52.166;4.506;2023-11-21T05:41:25;2.72;;;2.20;;
72688;SDS011;61053;52.166;4.506;2023-11-21T05:43:56;3.80;;;2.35;;
72688;SDS011;61053;52.166;4.506;2023-11-21T05:46:24;6.90;;;2.72;;
72688;SDS011;61053;52.166;4.506;2023-11-21T05:48:50;4.25;;;2.25;;
72688;SDS011;61053;52.166;4.506;2023-11-21T05:51:15;10.85;;;3.17;;
72688;SDS011;61053;52.166;4.506;2023-11-21T05:53:42;2.97;;;2.25;;
72688;SDS011;61053;52.166;4.506;2023-11-21T05:56:10;7.35;;;2.88;;
72688;SDS011;61053;52.166;4.506;2023-11-21T05:58:36;3.22;;;2.28;;
72688;SDS011;61053;52.166;4.506;2023-11-21T06:01:01;6.28;;;2.60;;
72688;SDS011;61053;52.166;4.506;2023-11-21T06:03:41;4.82;;;2.50;;
72688;SDS011;61053;52.166;4.506;2023-11-21T06:06:11;8.02;;;2.10;;
72688;SDS011;61053;52.166;4.506;2023-11-21T06:08:37;2.80;;;1.65;;
72688;SDS011;61053;52.166;4.506;2023-11-21T06:11:03;7.93;;;2.53;;
72688;SDS011;61053;52.166;4.506;2023-11-21T06:13:28;7.07;;;2.10;;
72688;SDS011;61053;52.166;4.506;2023-11-21T06:15:56;2.60;;;1.58;;
72688;SDS011;61053;52.166;4.506;2023-11-21T06:18:22;8.77;;;2.28;;
72688;SDS011;61053;52.166;4.506;2023-11-21T06:20:48;3.60;;;1.95;;
72688;SDS011;61053;52.166;4.506;2023-11-21T06:23:13;7.25;;;2.25;;
72688;SDS011;61053;52.166;4.506;2023-11-21T06:25:48;7.13;;;1.73;;
72688;SDS011;61053;52.166;4.506;2023-11-21T06:28:13;3.35;;;1.92;;
72688;SDS011;61053;52.166;4.506;2023-11-21T06:30:42;5.53;;;2.20;;
72688;SDS011;61053;52.166;4.506;2023-11-21T06:33:09;5.22;;;1.85;;
72688;SDS011;61053;52.166;4.506;2023-11-21T06:35:36;5.30;;;1.88;;
72688;SDS011;61053;52.166;4.506;2023-11-21T06:38:01;7.47;;;2.67;;
72688;SDS011;61053;52.166;4.506;2023-11-21T06:40:28;3.88;;;2.47;;
72688;SDS011;61053;52.166;4.506;2023-11-21T06:42:53;5.07;;;2.30;;
72688;SDS011;61053;52.166;4.506;2023-11-21T06:45:19;5.00;;;2.60;;
72688;SDS011;61053;52.166;4.506;2023-11-21T06:47:54;7.50;;;3.10;;
72688;SDS011;61053;52.166;4.506;2023-11-21T06:50:28;5.47;;;2.60;;
72688;SDS011;61053;52.166;4.506;2023-11-21T06:52:57;7.18;;;3.10;;
72688;SDS011;61053;52.166;4.506;2023-11-21T06:55:23;5.60;;;3.13;;
72688;SDS011;61053;52.166;4.506;2023-11-21T06:57:54;6.35;;;3.38;;
72688;SDS011;61053;52.166;4.506;2023-11-21T07:00:20;10.32;;;3.65;;
72688;SDS011;61053;52.166;4.506;2023-11-21T07:02:51;8.35;;;3.80;;
72688;SDS011;61053;52.166;4.506;2023-11-21T07:05:17;8.98;;;3.25;;
72688;SDS011;61053;52.166;4.506;2023-11-21T07:07:52;8.35;;;3.45;;
72688;SDS011;61053;52.166;4.506;2023-11-21T07:10:19;6.03;;;3.00;;
72688;SDS011;61053;52.166;4.506;2023-11-21T07:12:44;6.32;;;2.92;;
72688;SDS011;61053;52.166;4.506;2023-11-21T07:15:30;6.10;;;2.83;;
72688;SDS011;61053;52.166;4.506;2023-11-21T07:17:56;8.23;;;2.65;;
72688;SDS011;61053;52.166;4.506;2023-11-21T07:20:22;5.25;;;2.40;;
72688;SDS011;61053;52.166;4.506;2023-11-21T07:22:53;6.50;;;2.88;;
72688;SDS011;61053;52.166;4.506;2023-11-21T07:25:31;8.10;;;2.90;;
72688;SDS011;61053;52.166;4.506;2023-11-21T07:28:06;5.80;;;3.03;;
72688;SDS011;61053;52.166;4.506;2023-11-21T07:30:34;6.32;;;3.10;;
72688;SDS011;61053;52.166;4.506;2023-11-21T07:33:02;10.70;;;3.70;;
72688;SDS011;61053;52.166;4.506;2023-11-21T07:35:32;6.50;;;2.88;;
72688;SDS011;61053;52.166;4.506;2023-11-21T07:38:02;7.97;;;3.42;;
72688;SDS011;61053;52.166;4.506;2023-11-21T07:40:31;7.10;;;3.42;;
72688;SDS011;61053;52.166;4.506;2023-11-21T07:42:56;10.68;;;3.55;;
72688;SDS011;61053;52.166;4.506;2023-11-21T07:45:23;7.22;;;3.45;;
72688;SDS011;61053;52.166;4.506;2023-11-21T07:47:49;10.82;;;4.25;;
72688;SDS011;61053;52.166;4.506;2023-11-21T07:50:20;13.65;;;4.07;;
72688;SDS011;61053;52.166;4.506;2023-11-21T07:52:48;6.25;;;3.22;;
72688;SDS011;61053;52.166;4.506;2023-11-21T07:55:14;8.90;;;4.25;;
72688;SDS011;61053;52.166;4.506;2023-11-21T07:57:40;9.05;;;4.30;;
72688;SDS011;61053;52.166;4.506;2023-11-21T08:00:08;8.18;;;3.90;;
72688;SDS011;61053;52.166;4.506;2023-11-21T08:02:43;14.07;;;4.72;;
72688;SDS011;61053;52.166;4.506;2023-11-21T08:05:17;11.80;;;4.15;;
72688;SDS011;61053;52.166;4.506;2023-11-21T08:07:45;9.85;;;4.53;;
72688;SDS011;61053;52.166;4.506;2023-11-21T08:10:11;10.75;;;4.50;;
72688;SDS011;61053;52.166;4.506;2023-11-21T08:12:42;13.05;;;5.15;;
72688;SDS011;61053;52.166;4.506;2023-11-21T08:15:09;11.88;;;5.30;;
72688;SDS011;61053;52.166;4.506;2023-11-21T08:17:48;9.73;;;3.95;;
72688;SDS011;61053;52.166;4.506;2023-11-21T08:20:19;10.75;;;3.97;;
72688;SDS011;61053;52.166;4.506;2023-11-21T08:22:47;10.30;;;3.75;;
72688;SDS011;61053;52.166;4.506;2023-11-21T08:25:13;8.18;;;3.65;;
72688;SDS011;61053;52.166;4.506;2023-11-21T08:27:39;6.82;;;3.28;;
72688;SDS011;61053;52.166;4.506;2023-11-21T08:30:13;4.47;;;3.08;;
72688;SDS011;61053;52.166;4.506;2023-11-21T08:32:39;7.50;;;3.58;;
72688;SDS011;61053;52.166;4.506;2023-11-21T08:35:08;14.73;;;3.08;;
72688;SDS011;61053;52.166;4.506;2023-11-21T08:37:40;4.35;;;3.08;;
72688;SDS011;61053;52.166;4.506;2023-11-21T08:40:06;3.45;;;2.70;;
72688;SDS011;61053;52.166;4.506;2023-11-21T08:42:42;8.68;;;3.33;;
72688;SDS011;61053;52.166;4.506;2023-11-21T08:45:20;6.10;;;3.30;;
72688;SDS011;61053;52.166;4.506;2023-11-21T08:47:50;5.82;;;3.20;;
72688;SDS011;61053;52.166;4.506;2023-11-21T08:50:24;8.55;;;3.40;;
72688;SDS011;61053;52.166;4.506;2023-11-21T08:53:00;5.65;;;3.60;;
72688;SDS011;61053;52.166;4.506;2023-11-21T08:55:32;6.25;;;3.40;;
72688;SDS011;61053;52.166;4.506;2023-11-21T08:58:03;7.63;;;3.70;;
72688;SDS011;61053;52.166;4.506;2023-11-21T09:00:39;4.82;;;4.30;;
72688;SDS011;61053;52.166;4.506;2023-11-21T09:03:05;7.85;;;3.80;;
72688;SDS011;61053;52.166;4.506;2023-11-21T09:05:59;5.60;;;3.67;;
72688;SDS011;61053;52.166;4.506;2023-11-21T09:08:25;8.55;;;3.55;;
72688;SDS011;61053;52.166;4.506;2023-11-21T09:10:53;8.95;;;4.00;;
72688;SDS011;61053;52.166;4.506;2023-11-21T09:13:18;6.43;;;3.63;;
72688;SDS011;61053;52.166;4.506;2023-11-21T09:15:46;9.02;;;4.15;;
72688;SDS011;61053;52.166;4.506;2023-11-21T09:18:17;9.73;;;4.30;;
72688;SDS011;61053;52.166;4.506;2023-11-21T09:20:48;7.40;;;4.00;;
72688;SDS011;61053;52.166;4.506;2023-11-21T09:23:17;10.60;;;4.57;;
72688;SDS011;61053;52.166;4.506;2023-11-21T09:25:43;8.18;;;4.25;;
72688;SDS011;61053;52.166;4.506;2023-11-21T09:28:14;12.10;;;5.32;;
72688;SDS011;61053;52.166;4.506;2023-11-21T09:30:40;10.43;;;5.10;;
72688;SDS011;61053;52.166;4.506;2023-11-21T09:33:09;6.68;;;4.20;;
72688;SDS011;61053;52.166;4.506;2023-11-21T09:35:41;8.32;;;4.32;;
72688;SDS011;61053;52.166;4.506;2023-11-21T09:38:09;7.05;;;4.10;;
72688;SDS011;61053;52.166;4.506;2023-11-21T09:40:36;8.75;;;4.80;;
72688;SDS011;61053;52.166;4.506;2023-11-21T09:43:05;9.45;;;4.05;;
72688;SDS011;61053;52.166;4.506;2023-11-21T09:45:46;8.88;;;4.65;;
72688;SDS011;61053;52.166;4.506;2023-11-21T09:48:15;8.15;;;4.63;;
72688;SDS011;61053;52.166;4.506;2023-11-21T09:50:44;8.15;;;4.70;;
72688;SDS011;61053;52.166;4.506;2023-11-21T09:53:19;7.90;;;4.28;;
72688;SDS011;61053;52.166;4.506;2023-11-21T09:55:47;9.02;;;4.28;;
72688;SDS011;61053;52.166;4.506;2023-11-21T09:58:15;5.72;;;4.22;;
72688;SDS011;61053;52.166;4.506;2023-11-21T10:00:42;6.82;;;4.25;;
72688;SDS011;61053;52.166;4.506;2023-11-21T10:03:09;6.03;;;4.05;;
72688;SDS011;61053;52.166;4.506;2023-11-21T10:05:36;5.45;;;3.40;;
72688;SDS011;61053;52.166;4.506;2023-11-21T10:08:19;5.25;;;3.53;;
72688;SDS011;61053;52.166;4.506;2023-11-21T10:10:49;6.03;;;3.00;;
72688;SDS011;61053;52.166;4.506;2023-11-21T10:13:24;6.82;;;3.30;;
72688;SDS011;61053;52.166;4.506;2023-11-21T10:15:55;5.82;;;3.17;;
72688;SDS011;61053;52.166;4.506;2023-11-21T10:18:24;5.15;;;2.83;;
72688;SDS011;61053;52.166;4.506;2023-11-21T10:20:51;7.30;;;3.15;;
72688;SDS011;61053;52.166;4.506;2023-11-21T10:23:19;9.05;;;3.45;;
72688;SDS011;61053;52.166;4.506;2023-11-21T10:25:46;6.13;;;3.42;;
72688;SDS011;61053;52.166;4.506;2023-11-21T10:28:14;3.15;;;2.60;;
72688;SDS011;61053;52.166;4.506;2023-11-21T10:30:43;4.35;;;2.92;;
72688;SDS011;61053;52.166;4.506;2023-11-21T10:33:09;5.07;;;2.85;;
72688;SDS011;61053;52.166;4.506;2023-11-21T10:35:45;5.70;;;2.88;;
72688;SDS011;61053;52.166;4.506;2023-11-21T10:38:21;6.22;;;3.22;;
72688;SDS011;61053;52.166;4.506;2023-11-21T10:40:53;7.65;;;3.53;;
72688;SDS011;61053;52.166;4.506;2023-11-21T10:43:21;9.05;;;4.03;;
72688;SDS011;61053;52.166;4.506;2023-11-21T10:45:51;5.80;;;4.10;;
72688;SDS011;61053;52.166;4.506;2023-11-21T10:48:20;7.82;;;3.90;;
72688;SDS011;61053;52.166;4.506;2023-11-21T10:50:48;7.07;;;3.97;;
72688;SDS011;61053;52.166;4.506;2023-11-21T10:53:22;9.13;;;4.35;;
72688;SDS011;61053;52.166;4.506;2023-11-21T10:56:05;7.72;;;4.40;;
72688;SDS011;61053;52.166;4.506;2023-11-21T10:58:45;8.55;;;4.90;;
72688;SDS011;61053;52.166;4.506;2023-11-21T11:01:10;9.30;;;4.40;;
72688;SDS011;61053;52.166;4.506;2023-11-21T11:03:41;10.27;;;4.93;;
72688;SDS011;61053;52.166;4.506;2023-11-21T11:06:12;8.85;;;5.20;;
72688;SDS011;61053;52.166;4.506;2023-11-21T11:08:38;7.10;;;3.92;;
72688;SDS011;61053;52.166;4.506;2023-11-21T11:11:10;7.57;;;4.40;;
72688;SDS011;61053;52.166;4.506;2023-11-21T11:13:39;8.52;;;5.40;;
72688;SDS011;61053;52.166;4.506;2023-11-21T11:16:08;9.02;;;5.50;;
72688;SDS011;61053;52.166;4.506;2023-11-21T11:18:35;9.95;;;5.32;;
72688;SDS011;61053;52.166;4.506;2023-11-21T11:24:08;11.18;;;5.47;;
72688;SDS011;61053;52.166;4.506;2023-11-21T11:26:59;9.20;;;5.00;;
72688;SDS011;61053;52.166;4.506;2023-11-21T11:29:58;8.68;;;4.95;;
72688;SDS011;61053;52.166;4.506;2023-11-21T11:32:40;9.25;;;4.75;;
72688;SDS011;61053;52.166;4.506;2023-11-21T11:35:33;7.55;;;4.65;;
72688;SDS011;61053;52.166;4.506;2023-11-21T11:38:06;6.72;;;4.15;;
72688;SDS011;61053;52.166;4.506;2023-11-21T11:40:45;9.10;;;4.15;;
72688;SDS011;61053;52.166;4.506;2023-11-21T11:43:16;10.32;;;5.20;;
72688;SDS011;61053;52.166;4.506;2023-11-21T11:45:59;6.07;;;3.85;;
72688;SDS011;61053;52.166;4.506;2023-11-21T11:48:42;8.98;;;4.57;;
72688;SDS011;61053;52.166;4.506;2023-11-21T11:51:18;7.15;;;4.15;;
72688;SDS011;61053;52.166;4.506;2023-11-21T11:53:52;8.02;;;4.32;;
72688;SDS011;61053;52.166;4.506;2023-11-21T11:56:30;8.10;;;4.43;;
72688;SDS011;61053;52.166;4.506;2023-11-21T11:59:04;6.07;;;4.22;;
72688;SDS011;61053;52.166;4.506;2023-11-21T12:01:34;6.15;;;3.55;;
72688;SDS011;61053;52.166;4.506;2023-11-21T12:06:45;5.60;;;3.28;;
72688;SDS011;61053;52.166;4.506;2023-11-21T12:09:20;3.83;;;2.92;;
72688;SDS011;61053;52.166;4.506;2023-11-21T12:12:06;4.05;;;2.95;;
72688;SDS011;61053;52.166;4.506;2023-11-21T12:14:33;4.13;;;2.80;;
72688;SDS011;61053;52.166;4.506;2023-11-21T12:17:01;4.10;;;2.45;;
72688;SDS011;61053;52.166;4.506;2023-11-21T12:19:27;5.10;;;3.10;;
72688;SDS011;61053;52.166;4.506;2023-11-21T12:21:53;3.55;;;2.58;;
72688;SDS011;61053;52.166;4.506;2023-11-21T12:24:26;3.63;;;2.40;;
72688;SDS011;61053;52.166;4.506;2023-11-21T12:27:07;3.75;;;2.38;;
72688;SDS011;61053;52.166;4.506;2023-11-21T12:29:42;3.33;;;2.50;;
72688;SDS011;61053;52.166;4.506;2023-11-21T12:32:07;3.17;;;2.63;;
72688;SDS011;61053;52.166;4.506;2023-11-21T12:34:33;3.90;;;2.60;;
72688;SDS011;61053;52.166;4.506;2023-11-21T12:37:07;3.33;;;2.60;;
72688;SDS011;61053;52.166;4.506;2023-11-21T12:39:33;5.03;;;2.95;;
72688;SDS011;61053;52.166;4.506;2023-11-21T12:41:59;3.40;;;2.20;;
72688;SDS011;61053;52.166;4.506;2023-11-21T12:44:25;3.72;;;2.95;;
72688;SDS011;61053;52.166;4.506;2023-11-21T12:46:51;3.97;;;2.83;;
72688;SDS011;61053;52.166;4.506;2023-11-21T12:49:23;3.67;;;2.42;;
72688;SDS011;61053;52.166;4.506;2023-11-21T12:51:55;4.32;;;3.47;;
72688;SDS011;61053;52.166;4.506;2023-11-21T12:54:27;6.40;;;3.40;;
72688;SDS011;61053;52.166;4.506;2023-11-21T12:56:59;6.65;;;4.07;;
72688;SDS011;61053;52.166;4.506;2023-11-21T12:59:31;5.38;;;3.67;;
72688;SDS011;61053;52.166;4.506;2023-11-21T13:02:00;5.95;;;3.65;;
72688;SDS011;61053;52.166;4.506;2023-11-21T13:04:36;4.80;;;3.80;;
72688;SDS011;61053;52.166;4.506;2023-11-21T13:07:05;5.93;;;3.60;;
72688;SDS011;61053;52.166;4.506;2023-11-21T13:09:39;8.15;;;3.72;;
72688;SDS011;61053;52.166;4.506;2023-11-21T13:12:06;7.75;;;3.85;;
72688;SDS011;61053;52.166;4.506;2023-11-21T13:14:33;5.65;;;3.65;;
72688;SDS011;61053;52.166;4.506;2023-11-21T13:16:59;6.47;;;3.50;;
72688;SDS011;61053;52.166;4.506;2023-11-21T13:19:25;6.32;;;3.03;;
72688;SDS011;61053;52.166;4.506;2023-11-21T13:21:52;4.60;;;2.92;;
72688;SDS011;61053;52.166;4.506;2023-11-21T13:24:19;6.05;;;3.00;;
72688;SDS011;61053;52.166;4.506;2023-11-21T13:26:51;6.13;;;3.28;;
72688;SDS011;61053;52.166;4.506;2023-11-21T13:29:17;5.50;;;2.97;;
72688;SDS011;61053;52.166;4.506;2023-11-21T13:31:42;4.65;;;3.08;;
72688;SDS011;61053;52.166;4.506;2023-11-21T13:34:08;4.93;;;3.20;;
72688;SDS011;61053;52.166;4.506;2023-11-21T13:36:33;5.78;;;3.05;;
72688;SDS011;61053;52.166;4.506;2023-11-21T13:39:00;6.60;;;3.53;;
72688;SDS011;61053;52.166;4.506;2023-11-21T13:41:35;7.22;;;4.15;;
72688;SDS011;61053;52.166;4.506;2023-11-21T13:44:03;8.48;;;4.05;;
72688;SDS011;61053;52.166;4.506;2023-11-21T13:46:40;4.93;;;3.53;;
72688;SDS011;61053;52.166;4.506;2023-11-21T13:49:06;7.10;;;4.53;;
72688;SDS011;61053;52.166;4.506;2023-11-21T13:51:35;7.47;;;4.28;;
72688;SDS011;61053;52.166;4.506;2023-11-21T13:54:15;10.25;;;4.55;;
72688;SDS011;61053;52.166;4.506;2023-11-21T13:56:41;7.32;;;4.45;;
72688;SDS011;61053;52.166;4.506;2023-11-21T13:59:09;7.50;;;4.55;;
72688;SDS011;61053;52.166;4.506;2023-11-21T14:02:04;10.13;;;4.43;;
72688;SDS011;61053;52.166;4.506;2023-11-21T14:04:43;9.27;;;4.65;;
72688;SDS011;61053;52.166;4.506;2023-11-21T14:07:19;8.07;;;4.93;;
72688;SDS011;61053;52.166;4.506;2023-11-21T14:09:56;7.88;;;5.10;;
72688;SDS011;61053;52.166;4.506;2023-11-21T14:12:23;9.02;;;5.90;;
72688;SDS011;61053;52.166;4.506;2023-11-21T14:15:02;8.40;;;5.03;;
72688;SDS011;61053;52.166;4.506;2023-11-21T14:17:34;10.15;;;5.97;;
72688;SDS011;61053;52.166;4.506;2023-11-21T14:20:00;9.15;;;5.70;;
72688;SDS011;61053;52.166;4.506;2023-11-21T14:22:30;12.57;;;6.20;;
72688;SDS011;61053;52.166;4.506;2023-11-21T14:24:56;12.35;;;6.90;;
72688;SDS011;61053;52.166;4.506;2023-11-21T14:27:25;11.35;;;6.05;;
72688;SDS011;61053;52.166;4.506;2023-11-21T14:29:51;9.23;;;6.07;;
72688;SDS011;61053;52.166;4.506;2023-11-21T14:32:17;15.23;;;6.28;;
72688;SDS011;61053;52.166;4.506;2023-11-21T14:35:07;10.80;;;5.53;;
72688;SDS011;61053;52.166;4.506;2023-11-21T14:37:34;10.20;;;6.03;;
72688;SDS011;61053;52.166;4.506;2023-11-21T14:40:00;9.52;;;5.85;;
72688;SDS011;61053;52.166;4.506;2023-11-21T14:42:26;11.10;;;5.40;;
72688;SDS011;61053;52.166;4.506;2023-11-21T14:44:55;8.95;;;5.45;;
72688;SDS011;61053;52.166;4.506;2023-11-21T14:47:25;11.55;;;5.80;;
72688;SDS011;61053;52.166;4.506;2023-11-21T14:49:52;10.75;;;5.45;;
72688;SDS011;61053;52.166;4.506;2023-11-21T14:52:20;7.88;;;4.63;;
72688;SDS011;61053;52.166;4.506;2023-11-21T14:55:02;9.85;;;4.90;;
72688;SDS011;61053;52.166;4.506;2023-11-21T14:57:44;9.27;;;4.70;;
72688;SDS011;61053;52.166;4.506;2023-11-21T15:00:29;12.15;;;5.18;;
72688;SDS011;61053;52.166;4.506;2023-11-21T15:03:00;8.75;;;4.75;;
72688;SDS011;61053;52.166;4.506;2023-11-21T15:06:17;9.95;;;4.55;;
72688;SDS011;61053;52.166;4.506;2023-11-21T15:08:52;10.70;;;4.85;;
72688;SDS011;61053;52.166;4.506;2023-11-21T15:11:32;10.65;;;5.18;;